createdAt,value
2022-11-20T00:01:41.534Z,-1.00
2022-11-20T00:04:09.663Z,-1.00
2022-11-20T00:06:36.398Z,-1.00
2022-11-20T00:09:03.100Z,-1.00
2022-11-20T00:11:32.593Z,-1.00
2022-11-20T00:14:00.903Z,-1.00
2022-11-20T00:16:33.229Z,-1.00
2022-11-20T00:19:02.461Z,-1.00
2022-11-20T00:21:29.284Z,-1.00
2022-11-20T00:23:56.579Z,-1.10
2022-11-20T00:26:24.036Z,-1.10
2022-11-20T00:28:57.903Z,-1.10
2022-11-20T00:31:24.763Z,-1.20
2022-11-20T00:33:51.577Z,-1.20
2022-11-20T00:36:19.672Z,-1.10
2022-11-20T00:38:46.556Z,-1.10
2022-11-20T00:41:14.910Z,-1.10
2022-11-20T00:43:41.855Z,-1.10
2022-11-20T00:46:18.387Z,-1.10
2022-11-20T00:48:47.461Z,-1.10
2022-11-20T00:51:20.054Z,-1.10
2022-11-20T00:53:49.264Z,-1.10
2022-11-20T00:56:19.053Z,-1.10
2022-11-20T00:58:49.803Z,-1.10
2022-11-20T01:01:21.597Z,-1.10
2022-11-20T01:03:49.723Z,-1.10
2022-11-20T01:06:21.065Z,-1.10
2022-11-20T01:08:48.014Z,-1.10
2022-11-20T01:11:27.444Z,-1.20
2022-11-20T01:13:54.609Z,-1.20
2022-11-20T01:16:29.620Z,-1.20
2022-11-20T01:18:58.207Z,-1.20
2022-11-20T01:21:29.784Z,-1.20
2022-11-20T01:23:56.585Z,-1.20
2022-11-20T01:26:28.027Z,-1.20
2022-11-20T01:28:57.389Z,-1.20
2022-11-20T01:31:28.263Z,-1.20
2022-11-20T01:33:56.555Z,-1.20
2022-11-20T01:36:28.730Z,-1.20
2022-11-20T01:38:56.622Z,-1.20
2022-11-20T01:41:42.492Z,-1.20
2022-11-20T01:44:11.708Z,-1.20
2022-11-20T01:46:39.376Z,-1.30
2022-11-20T01:49:12.670Z,-1.30
2022-11-20T01:51:53.087Z,-1.20
2022-11-20T01:54:23.076Z,-1.20
2022-11-20T01:56:52.945Z,-1.20
2022-11-20T01:59:20.046Z,-1.20
2022-11-20T02:01:49.102Z,-1.20
2022-11-20T02:04:15.874Z,-1.20
2022-11-20T02:06:47.293Z,-1.20
2022-11-20T02:09:14.681Z,-1.20
2022-11-20T02:11:41.525Z,-1.30
2022-11-20T02:14:10.277Z,-1.30
2022-11-20T02:16:39.005Z,-1.30
2022-11-20T02:19:07.523Z,-1.30
2022-11-20T02:21:43.174Z,-1.30
2022-11-20T02:24:14.009Z,-1.30
2022-11-20T02:26:47.314Z,-1.30
2022-11-20T02:29:14.787Z,-1.20
2022-11-20T02:31:42.633Z,-1.10
2022-11-20T02:34:09.409Z,-1.10
2022-11-20T02:36:36.575Z,-1.10
2022-11-20T02:39:06.259Z,-1.10
2022-11-20T02:41:37.427Z,-1.10
2022-11-20T02:44:04.607Z,-1.10
2022-11-20T02:46:31.836Z,-1.00
2022-11-20T02:48:58.537Z,-1.00
2022-11-20T02:51:25.252Z,-1.00
2022-11-20T02:53:52.134Z,-1.00
2022-11-20T02:56:18.829Z,-1.00
2022-11-20T02:58:45.731Z,-1.00
2022-11-20T03:01:12.475Z,-1.10
2022-11-20T03:03:39.279Z,-1.00
2022-11-20T03:06:06.340Z,-1.00
2022-11-20T03:08:33.079Z,-1.00
2022-11-20T03:11:04.075Z,-1.00
2022-11-20T03:13:30.786Z,-1.00
2022-11-20T03:15:59.862Z,-1.00
2022-11-20T03:18:29.830Z,-1.00
2022-11-20T03:21:02.122Z,-1.00
2022-11-20T03:23:30.770Z,-1.00
2022-11-20T03:26:08.656Z,-1.00
2022-11-20T03:28:37.623Z,-1.00
2022-11-20T03:31:15.576Z,-1.00
2022-11-20T03:33:42.717Z,-1.00
2022-11-20T03:36:13.497Z,-1.00
2022-11-20T03:38:42.752Z,-1.10
2022-11-20T03:41:13.732Z,-1.10
2022-11-20T03:43:40.523Z,-1.10
2022-11-20T03:46:09.861Z,-1.10
2022-11-20T03:48:36.609Z,-1.10
2022-11-20T03:51:10.451Z,-1.10
2022-11-20T03:53:37.135Z,-1.10
2022-11-20T03:56:04.074Z,-1.10
2022-11-20T03:58:33.134Z,-1.10
2022-11-20T04:01:04.753Z,-1.10
2022-11-20T04:03:31.437Z,-1.10
2022-11-20T04:06:11.761Z,-1.10
2022-11-20T04:08:38.518Z,-1.20
2022-11-20T04:11:16.241Z,-1.20
2022-11-20T04:13:43.425Z,-1.20
2022-11-20T04:16:10.697Z,-1.20
2022-11-20T04:18:37.449Z,-1.20
2022-11-20T04:21:04.746Z,-1.20
2022-11-20T04:23:38.589Z,-1.20
2022-11-20T04:26:09.708Z,-1.20
2022-11-20T04:28:36.698Z,-1.20
2022-11-20T04:31:10.118Z,-1.20
2022-11-20T04:33:37.147Z,-1.20
2022-11-20T04:36:05.473Z,-1.20
2022-11-20T04:38:32.345Z,-1.20
2022-11-20T04:41:05.337Z,-1.30
2022-11-20T04:43:32.503Z,-1.30
2022-11-20T04:45:59.413Z,-1.30
2022-11-20T04:48:28.833Z,-1.30
2022-11-20T04:50:57.892Z,-1.40
2022-11-20T04:53:24.595Z,-1.50
2022-11-20T04:55:51.290Z,-1.50
2022-11-20T04:58:20.195Z,-1.50
2022-11-20T05:00:49.043Z,-1.50
2022-11-20T05:03:18.326Z,-1.60
2022-11-20T05:05:47.474Z,-1.60
2022-11-20T05:08:14.148Z,-1.60
2022-11-20T05:10:40.866Z,-1.60
2022-11-20T05:13:07.546Z,-1.60
2022-11-20T05:15:34.420Z,-1.60
2022-11-20T05:18:03.711Z,-1.50
2022-11-20T05:20:30.462Z,-1.50
2022-11-20T05:23:00.345Z,-1.60
2022-11-20T05:25:27.029Z,-1.60
2022-11-20T05:27:54.401Z,-1.70
2022-11-20T05:30:23.309Z,-1.70
2022-11-20T05:32:49.997Z,-1.70
2022-11-20T05:35:19.149Z,-1.70
2022-11-20T05:37:45.840Z,-1.70
2022-11-20T05:40:15.055Z,-1.70
2022-11-20T05:42:44.613Z,-1.70
2022-11-20T05:45:13.608Z,-1.80
2022-11-20T05:47:40.301Z,-1.80
2022-11-20T05:50:07.307Z,-1.80
2022-11-20T05:52:34.025Z,-1.80
2022-11-20T05:55:00.716Z,-1.80
2022-11-20T05:57:27.467Z,-1.80
2022-11-20T05:59:54.183Z,-1.80
2022-11-20T06:02:21.012Z,-1.80
2022-11-20T06:04:48.127Z,-1.80
2022-11-20T06:07:17.104Z,-1.80
2022-11-20T06:09:43.871Z,-1.90
2022-11-20T06:12:10.571Z,-1.90
2022-11-20T06:14:37.309Z,-1.90
2022-11-20T06:17:06.484Z,-1.90
2022-11-20T06:19:33.181Z,-2.00
2022-11-20T06:22:02.238Z,-2.00
2022-11-20T06:24:29.019Z,-1.90
2022-11-20T06:26:58.319Z,-1.90
2022-11-20T06:29:27.691Z,-1.90
2022-11-20T06:31:56.723Z,-1.90
2022-11-20T06:34:23.428Z,-1.90
2022-11-20T06:36:50.117Z,-1.90
2022-11-20T06:39:19.449Z,-1.90
2022-11-20T06:41:46.273Z,-1.90
2022-11-20T06:44:13.050Z,-1.90
2022-11-20T06:46:39.748Z,-1.90
2022-11-20T06:49:08.635Z,-1.80
2022-11-20T06:51:37.549Z,-1.80
2022-11-20T06:54:04.386Z,-1.80
2022-11-20T06:56:31.088Z,-1.80
2022-11-20T06:59:02.258Z,-1.80
2022-11-20T07:01:28.986Z,-1.80
2022-11-20T07:03:55.675Z,-1.80
2022-11-20T07:06:24.628Z,-1.80
2022-11-20T07:08:54.506Z,-1.80
2022-11-20T07:11:21.192Z,-1.80
2022-11-20T07:13:47.923Z,-1.80
2022-11-20T07:16:16.821Z,-1.70
2022-11-20T07:18:48.853Z,-1.70
2022-11-20T07:21:19.293Z,-1.80
2022-11-20T07:23:46.040Z,-1.70
2022-11-20T07:26:17.152Z,-1.70
2022-11-20T07:28:48.488Z,-1.70
2022-11-20T07:31:19.040Z,-1.70
2022-11-20T07:33:46.674Z,-1.70
2022-11-20T07:36:13.361Z,-1.60
2022-11-20T07:38:42.258Z,-1.60
2022-11-20T07:41:08.950Z,-1.60
2022-11-20T07:43:41.220Z,-1.60
2022-11-20T07:46:10.542Z,-1.60
2022-11-20T07:48:37.262Z,-1.60
2022-11-20T07:51:03.976Z,-1.60
2022-11-20T07:53:30.673Z,-1.60
2022-11-20T07:56:01.100Z,-1.60
2022-11-20T07:58:29.954Z,-1.60
2022-11-20T08:00:57.240Z,-1.60
2022-11-20T08:03:25.916Z,-1.60
2022-11-20T08:05:52.772Z,-1.50
2022-11-20T08:08:23.954Z,-1.60
2022-11-20T08:11:13.061Z,-1.50
2022-11-20T08:14:00.789Z,-1.50
2022-11-20T08:16:27.509Z,-1.50
2022-11-20T08:18:54.267Z,-1.40
2022-11-20T08:21:20.972Z,-1.30
2022-11-20T08:23:47.753Z,-1.30
2022-11-20T08:26:14.451Z,-1.20
2022-11-20T08:28:41.177Z,-1.20
2022-11-20T08:31:07.931Z,-1.20
2022-11-20T08:33:37.107Z,-1.10
2022-11-20T08:36:04.381Z,-1.00
2022-11-20T08:38:36.198Z,-1.00
2022-11-20T08:41:22.550Z,-0.90
2022-11-20T08:43:49.277Z,-0.70
2022-11-20T08:46:16.027Z,-0.80
2022-11-20T08:48:42.941Z,-0.80
2022-11-20T08:51:09.807Z,-0.70
2022-11-20T08:53:36.589Z,-0.70
2022-11-20T08:56:03.333Z,-0.60
2022-11-20T08:58:43.828Z,-0.60
2022-11-20T09:01:19.874Z,-0.60
2022-11-20T09:03:46.735Z,-0.50
2022-11-20T09:06:13.626Z,-0.50
2022-11-20T09:08:40.524Z,-0.50
2022-11-20T09:11:09.492Z,-0.40
2022-11-20T09:13:36.569Z,-0.40
2022-11-20T09:16:05.976Z,-0.40
2022-11-20T09:18:36.940Z,-0.30
2022-11-20T09:21:05.438Z,-0.30
2022-11-20T09:23:34.373Z,-0.30
2022-11-20T09:26:05.354Z,-0.30
2022-11-20T09:28:32.515Z,-0.20
2022-11-20T09:31:01.963Z,-0.20
2022-11-20T09:33:31.293Z,-0.20
2022-11-20T09:36:05.295Z,-0.20
2022-11-20T09:38:34.343Z,-0.10
2022-11-20T09:41:05.954Z,-0.10
2022-11-20T09:44:04.228Z,-0.10
2022-11-20T09:46:35.877Z,0.00
2022-11-20T09:49:31.878Z,0.00
2022-11-20T09:52:44.953Z,0.10
2022-11-20T09:55:12.721Z,0.10
2022-11-20T09:57:41.754Z,0.20
2022-11-20T10:00:14.366Z,0.20
2022-11-20T10:03:02.477Z,0.20
2022-11-20T10:05:40.017Z,0.20
2022-11-20T10:08:15.593Z,0.30
2022-11-20T10:11:02.125Z,0.30
2022-11-20T10:13:37.753Z,0.40
2022-11-20T10:16:36.675Z,0.40
2022-11-20T10:19:19.646Z,0.40
2022-11-20T10:22:02.269Z,0.50
2022-11-20T10:24:29.208Z,0.50
2022-11-20T10:26:56.041Z,0.50
2022-11-20T10:29:35.952Z,0.50
2022-11-20T10:32:10.782Z,0.50
2022-11-20T10:34:48.919Z,0.50
2022-11-20T10:37:19.610Z,0.60
2022-11-20T10:39:55.176Z,0.60
2022-11-20T10:42:38.961Z,0.60
2022-11-20T10:45:21.677Z,0.70
2022-11-20T10:48:09.059Z,0.70
2022-11-20T10:50:43.392Z,0.60
2022-11-20T10:53:29.600Z,0.60
2022-11-20T10:56:05.977Z,0.70
2022-11-20T10:58:48.077Z,0.70
2022-11-20T11:01:19.780Z,0.70
2022-11-20T11:03:48.783Z,0.80
2022-11-20T11:06:54.943Z,0.80
2022-11-20T11:09:29.237Z,0.90
2022-11-20T11:12:00.711Z,0.90
2022-11-20T11:14:29.940Z,0.90
2022-11-20T11:16:58.097Z,1.00
2022-11-20T11:19:27.021Z,1.00
2022-11-20T11:21:55.947Z,1.00
2022-11-20T11:24:43.219Z,1.10
2022-11-20T11:27:18.854Z,1.10
2022-11-20T11:29:49.046Z,1.10
2022-11-20T11:32:18.897Z,1.10
2022-11-20T11:34:45.755Z,1.20
2022-11-20T11:37:19.745Z,1.20
2022-11-20T11:39:49.331Z,1.30
2022-11-20T11:42:19.524Z,1.30
2022-11-20T11:45:06.067Z,1.40
2022-11-20T11:47:44.975Z,1.40
2022-11-20T11:50:26.752Z,1.40
2022-11-20T11:52:56.265Z,1.50
2022-11-20T11:55:41.419Z,1.50
2022-11-20T11:58:31.832Z,1.50
2022-11-20T12:01:15.462Z,1.50
2022-11-20T12:03:42.783Z,1.50
2022-11-20T12:06:15.709Z,1.60
2022-11-20T12:09:05.269Z,1.60
2022-11-20T12:12:02.693Z,1.60
2022-11-20T12:14:41.558Z,1.60
2022-11-20T12:17:12.175Z,1.70
2022-11-20T12:19:38.910Z,1.70
2022-11-20T12:22:14.997Z,1.70
2022-11-20T12:25:08.744Z,1.70
2022-11-20T12:27:39.679Z,1.80
2022-11-20T12:30:15.744Z,1.70
2022-11-20T12:33:03.417Z,1.70
2022-11-20T12:35:43.736Z,1.70
2022-11-20T12:38:33.696Z,1.80
2022-11-20T12:41:41.390Z,1.80
2022-11-20T12:44:45.435Z,1.80
2022-11-20T12:47:21.567Z,1.80
2022-11-20T12:50:01.978Z,1.80
2022-11-20T12:52:59.534Z,1.90
2022-11-20T12:55:27.427Z,1.90
2022-11-20T12:58:12.783Z,1.90
2022-11-20T13:00:42.390Z,1.90
2022-11-20T13:03:32.929Z,1.90
2022-11-20T13:06:11.357Z,1.90
2022-11-20T13:08:42.532Z,1.90
2022-11-20T13:11:18.379Z,1.90
2022-11-20T13:14:00.400Z,1.90
2022-11-20T13:16:45.710Z,2.00
2022-11-20T13:19:14.000Z,1.90
2022-11-20T13:21:45.898Z,1.90
2022-11-20T13:24:24.972Z,1.90
2022-11-20T13:27:14.234Z,1.90
2022-11-20T13:29:45.190Z,1.90
2022-11-20T13:32:15.853Z,1.90
2022-11-20T13:34:56.184Z,1.90
2022-11-20T13:37:41.145Z,2.30
2022-11-20T13:40:13.576Z,2.00
2022-11-20T13:42:46.874Z,2.00
2022-11-20T13:45:28.375Z,2.00
2022-11-20T13:47:55.540Z,2.00
2022-11-20T13:50:37.597Z,2.00
2022-11-20T13:53:27.551Z,2.00
2022-11-20T13:56:10.437Z,2.00
2022-11-20T13:58:48.564Z,2.00
2022-11-20T14:01:24.986Z,2.00
2022-11-20T14:04:05.575Z,2.00
2022-11-20T14:06:35.099Z,2.00
2022-11-20T14:09:04.419Z,2.00
2022-11-20T14:11:31.852Z,2.00
2022-11-20T14:14:01.337Z,2.30
2022-11-20T14:16:29.441Z,1.90
2022-11-20T14:18:56.306Z,1.90
2022-11-20T14:21:26.762Z,1.90
2022-11-20T14:23:54.922Z,1.90
2022-11-20T14:26:26.063Z,1.80
2022-11-20T14:28:52.799Z,1.70
2022-11-20T14:31:28.049Z,1.70
2022-11-20T14:33:56.840Z,1.70
2022-11-20T14:36:25.126Z,1.60
2022-11-20T14:38:55.528Z,1.60
2022-11-20T14:41:23.649Z,1.60
2022-11-20T14:44:03.106Z,1.60
2022-11-20T14:46:30.206Z,1.60
2022-11-20T14:48:58.078Z,1.60
2022-11-20T14:51:32.551Z,1.50
2022-11-20T14:54:18.901Z,1.50
2022-11-20T14:57:02.438Z,1.40
2022-11-20T14:59:33.553Z,1.40
2022-11-20T15:02:02.962Z,1.40
2022-11-20T15:04:29.707Z,1.40
2022-11-20T15:07:02.639Z,1.30
2022-11-20T15:09:29.386Z,1.30
2022-11-20T15:12:00.236Z,1.30
2022-11-20T15:14:27.449Z,1.30
2022-11-20T15:16:54.263Z,1.30
2022-11-20T15:19:29.442Z,1.30
2022-11-20T15:21:56.375Z,1.30
2022-11-20T15:24:23.486Z,1.30
2022-11-20T15:26:50.379Z,1.30
2022-11-20T15:29:22.645Z,1.30
2022-11-20T15:31:53.686Z,1.20
2022-11-20T15:34:20.551Z,1.20
2022-11-20T15:36:47.369Z,1.20
2022-11-20T15:39:16.607Z,1.20
2022-11-20T15:41:43.275Z,1.20
2022-11-20T15:44:09.989Z,1.10
2022-11-20T15:46:39.519Z,1.10
2022-11-20T15:49:06.491Z,1.10
2022-11-20T15:51:41.068Z,1.50
2022-11-20T15:54:18.755Z,1.10
2022-11-20T15:56:45.525Z,1.10
2022-11-20T15:59:20.292Z,1.00
2022-11-20T16:01:47.250Z,1.00
2022-11-20T16:04:15.535Z,0.90
2022-11-20T16:06:42.474Z,0.90
2022-11-20T16:09:09.270Z,0.90
2022-11-20T16:11:37.937Z,0.90
2022-11-20T16:14:26.470Z,0.90
2022-11-20T16:16:53.473Z,0.90
2022-11-20T16:19:20.249Z,0.90
2022-11-20T16:21:47.083Z,0.90
2022-11-20T16:24:14.850Z,0.80
2022-11-20T16:26:41.804Z,0.80
2022-11-20T16:29:08.612Z,0.80
2022-11-20T16:31:37.830Z,0.80
2022-11-20T16:34:11.948Z,0.70
2022-11-20T16:36:40.885Z,0.70
2022-11-20T16:39:07.616Z,0.70
2022-11-20T16:41:34.764Z,0.70
2022-11-20T16:44:05.065Z,0.70
2022-11-20T16:46:32.448Z,0.70
2022-11-20T16:49:02.709Z,0.70
2022-11-20T16:51:31.022Z,0.70
2022-11-20T16:54:00.001Z,0.70
2022-11-20T16:56:27.338Z,0.70
2022-11-20T16:58:57.427Z,0.70
2022-11-20T17:01:24.723Z,0.60
2022-11-20T17:04:02.293Z,0.60
2022-11-20T17:06:30.948Z,0.60
2022-11-20T17:08:58.463Z,0.50
2022-11-20T17:11:25.374Z,0.50
2022-11-20T17:13:52.121Z,0.50
2022-11-20T17:16:20.535Z,0.40
2022-11-20T17:18:47.335Z,0.40
2022-11-20T17:21:16.624Z,0.40
2022-11-20T17:23:44.066Z,0.40
2022-11-20T17:26:17.820Z,0.40
2022-11-20T17:28:47.365Z,0.40
2022-11-20T17:31:17.502Z,0.40
2022-11-20T17:33:45.178Z,0.40
2022-11-20T17:36:14.948Z,0.30
2022-11-20T17:38:41.775Z,0.30
2022-11-20T17:41:14.708Z,0.30
2022-11-20T17:43:44.675Z,0.40
2022-11-20T17:46:13.089Z,0.30
2022-11-20T17:48:44.123Z,0.30
2022-11-20T17:51:12.557Z,0.30
2022-11-20T17:53:41.039Z,0.30
2022-11-20T17:56:26.493Z,0.30
2022-11-20T17:58:55.451Z,0.30
2022-11-20T18:01:22.608Z,0.30
2022-11-20T18:03:49.766Z,0.40
2022-11-20T18:06:23.299Z,0.40
2022-11-20T18:08:52.544Z,0.30
2022-11-20T18:11:20.232Z,0.30
2022-11-20T18:14:06.326Z,0.30
2022-11-20T18:16:34.728Z,0.30
2022-11-20T18:19:03.971Z,0.30
2022-11-20T18:21:31.509Z,0.30
2022-11-20T18:23:58.513Z,0.30
2022-11-20T18:26:29.945Z,0.30
2022-11-20T18:28:56.925Z,0.30
2022-11-20T18:31:23.745Z,0.30
2022-11-20T18:33:52.536Z,0.30
2022-11-20T18:36:20.590Z,0.20
2022-11-20T18:38:50.573Z,0.20
2022-11-20T18:41:39.332Z,0.20
2022-11-20T18:44:26.200Z,0.20
2022-11-20T18:46:55.156Z,0.10
2022-11-20T18:49:26.555Z,0.20
2022-11-20T18:51:53.375Z,0.20
2022-11-20T18:54:20.060Z,0.20
2022-11-20T18:56:49.276Z,0.20
2022-11-20T18:59:16.912Z,0.20
2022-11-20T19:01:43.950Z,0.20
2022-11-20T19:04:11.716Z,0.20
2022-11-20T19:06:39.025Z,0.20
2022-11-20T19:09:06.397Z,0.20
2022-11-20T19:11:33.092Z,0.20
2022-11-20T19:13:59.872Z,0.20
2022-11-20T19:16:26.822Z,0.20
2022-11-20T19:19:03.059Z,0.20
2022-11-20T19:21:30.292Z,0.30
2022-11-20T19:23:58.982Z,0.20
2022-11-20T19:26:25.891Z,0.20
2022-11-20T19:28:52.716Z,0.20
2022-11-20T19:31:24.801Z,0.30
2022-11-20T19:33:56.058Z,0.30
2022-11-20T19:36:27.327Z,0.30
2022-11-20T19:38:56.613Z,0.30
2022-11-20T19:41:31.380Z,0.40
2022-11-20T19:44:03.325Z,0.40
2022-11-20T19:46:33.326Z,0.40
2022-11-20T19:49:00.088Z,0.40
2022-11-20T19:51:29.785Z,0.40
2022-11-20T19:53:57.207Z,0.30
2022-11-20T19:56:27.262Z,0.30
2022-11-20T19:58:56.752Z,0.30
2022-11-20T20:01:25.439Z,0.30
2022-11-20T20:03:53.540Z,0.30
2022-11-20T20:06:22.226Z,0.30
2022-11-20T20:08:54.914Z,0.30
2022-11-20T20:11:22.371Z,1.00
2022-11-20T20:13:51.829Z,0.30
2022-11-20T20:16:20.224Z,0.30
2022-11-20T20:18:47.038Z,0.30
2022-11-20T20:21:15.708Z,0.30
2022-11-20T20:23:45.063Z,0.30
2022-11-20T20:26:11.856Z,0.40
2022-11-20T20:28:38.760Z,0.40
2022-11-20T20:31:18.009Z,0.40
2022-11-20T20:33:49.579Z,0.40
2022-11-20T20:36:17.154Z,0.40
2022-11-20T20:38:46.540Z,0.40
2022-11-20T20:41:14.603Z,0.40
2022-11-20T20:44:02.482Z,0.40
2022-11-20T20:46:29.250Z,0.40
2022-11-20T20:48:56.174Z,0.40
2022-11-20T20:51:23.064Z,0.50
2022-11-20T20:53:52.439Z,0.40
2022-11-20T20:56:19.221Z,0.40
2022-11-20T20:58:46.104Z,0.40
2022-11-20T21:01:14.982Z,0.40
2022-11-20T21:03:41.918Z,1.80
2022-11-20T21:06:09.953Z,0.40
2022-11-20T21:08:40.139Z,0.40
2022-11-20T21:11:08.352Z,0.30
2022-11-20T21:13:39.142Z,0.40
2022-11-20T21:16:06.072Z,0.50
2022-11-20T21:18:33.255Z,0.40
2022-11-20T21:21:25.524Z,0.50
2022-11-20T21:23:53.482Z,0.50
2022-11-20T21:26:20.725Z,0.50
2022-11-20T21:28:50.122Z,0.50
2022-11-20T21:31:22.450Z,0.50
2022-11-20T21:33:53.348Z,1.60
2022-11-20T21:36:26.256Z,0.50
2022-11-20T21:38:55.799Z,0.60
2022-11-20T21:41:23.242Z,0.60
2022-11-20T21:44:15.912Z,0.90
2022-11-20T21:46:41.467Z,0.50
2022-11-20T21:49:08.214Z,0.50
2022-11-20T21:51:37.736Z,0.50
2022-11-20T21:54:04.546Z,1.50
2022-11-20T21:56:33.880Z,0.50
2022-11-20T21:59:03.161Z,0.70
2022-11-20T22:01:32.573Z,0.40
2022-11-20T22:04:01.009Z,0.40
2022-11-20T22:06:32.661Z,1.20
2022-11-20T22:08:59.902Z,1.10
2022-11-20T22:11:26.680Z,1.30
2022-11-20T22:14:11.939Z,0.50
2022-11-20T22:16:39.234Z,1.20
2022-11-20T22:19:06.151Z,0.70
2022-11-20T22:21:35.200Z,0.50
2022-11-20T22:24:04.556Z,0.50
2022-11-20T22:26:40.908Z,0.40
2022-11-20T22:29:18.149Z,0.40
2022-11-20T22:31:47.886Z,0.50
2022-11-20T22:34:14.715Z,0.50
2022-11-20T22:36:42.755Z,0.50
2022-11-20T22:39:12.096Z,0.50
2022-11-20T22:41:38.807Z,0.50
2022-11-20T22:44:06.833Z,0.40
2022-11-20T22:46:35.069Z,0.40
2022-11-20T22:49:03.383Z,0.40
2022-11-20T22:51:31.751Z,0.40
2022-11-20T22:53:58.671Z,0.40
2022-11-20T22:56:25.946Z,0.40
2022-11-20T22:58:53.166Z,1.10
2022-11-20T23:01:26.258Z,0.40
2022-11-20T23:04:00.016Z,0.40
2022-11-20T23:06:26.880Z,0.40
2022-11-20T23:08:53.767Z,0.30
2022-11-20T23:11:22.203Z,0.30
2022-11-20T23:13:53.074Z,0.30
2022-11-20T23:16:22.908Z,0.40
2022-11-20T23:18:59.867Z,0.40
2022-11-20T23:21:29.349Z,0.40
2022-11-20T23:23:56.989Z,0.30
2022-11-20T23:26:27.498Z,0.30
2022-11-20T23:28:57.854Z,0.30
2022-11-20T23:31:25.054Z,0.20
2022-11-20T23:33:51.906Z,0.20
2022-11-20T23:36:18.709Z,0.20
2022-11-20T23:39:34.856Z,0.10
2022-11-20T23:45:44.104Z,0.60
2022-11-20T23:59:59.172Z,1.30
